sensor_id;sensor_type;location;lat;lon;timestamp;P1;P2;P0
77692;PMS5003;66984;47.404;18.836;2023-05-02T00:00:02;1.00;1.00;0.00
77692;PMS5003;66984;47.404;18.836;2023-05-02T00:01:06;1.00;1.00;0.00
77692;PMS5003;66984;47.404;18.836;2023-05-02T00:02:09;0.25;0.25;0.00
77692;PMS5003;66984;47.404;18.836;2023-05-02T00:03:12;0.00;0.00;0.00
77692;PMS5003;66984;47.404;18.836;2023-05-02T00:04:15;0.00;0.00;0.00
77692;PMS5003;66984;47.404;18.836;2023-05-02T00:05:18;0.00;0.00;0.00
77692;PMS5003;66984;47.404;18.836;2023-05-02T00:06:21;0.00;0.00;0.00
77692;PMS5003;66984;47.404;18.836;2023-05-02T00:07:25;1.50;1.00;0.00
77692;PMS5003;66984;47.404;18.836;2023-05-02T00:08:28;2.00;1.00;0.00
77692;PMS5003;66984;47.404;18.836;2023-05-02T00:09:31;2.00;1.00;0.00
77692;PMS5003;66984;47.404;18.836;2023-05-02T00:10:34;2.00;1.25;0.00
77692;PMS5003;66984;47.404;18.836;2023-05-02T00:11:37;2.00;2.00;0.00
77692;PMS5003;66984;47.404;18.836;2023-05-02T00:12:40;0.00;0.00;0.00
77692;PMS5003;66984;47.404;18.836;2023-05-02T00:13:43;1.00;0.00;0.00
77692;PMS5003;66984;47.404;18.836;2023-05-02T00:14:46;0.25;0.00;0.00
77692;PMS5003;66984;47.404;18.836;2023-05-02T00:15:49;0.00;0.00;0.00
77692;PMS5003;66984;47.404;18.836;2023-05-02T00:16:51;2.00;1.25;0.00
77692;PMS5003;66984;47.404;18.836;2023-05-02T00:17:54;1.00;1.00;0.00
77692;PMS5003;66984;47.404;18.836;2023-05-02T00:18:57;0.00;0.00;0.00
77692;PMS5003;66984;47.404;18.836;2023-05-02T00:20:00;1.00;1.00;0.00
77692;PMS5003;66984;47.404;18.836;2023-05-02T00:21:05;0.50;0.00;0.00
77692;PMS5003;66984;47.404;18.836;2023-05-02T00:22:09;2.00;0.00;0.00
77692;PMS5003;66984;47.404;18.836;2023-05-02T00:23:12;2.00;0.50;0.00
77692;PMS5003;66984;47.404;18.836;2023-05-02T00:24:16;1.00;1.00;0.00
77692;PMS5003;66984;47.404;18.836;2023-05-02T00:25:19;0.00;0.00;0.00
77692;PMS5003;66984;47.404;18.836;2023-05-02T00:26:22;0.00;0.00;0.00
77692;PMS5003;66984;47.404;18.836;2023-05-02T00:27:25;0.00;0.00;0.00
77692;PMS5003;66984;47.404;18.836;2023-05-02T00:28:28;1.00;1.00;0.00
77692;PMS5003;66984;47.404;18.836;2023-05-02T00:29:31;2.00;1.00;0.00
77692;PMS5003;66984;47.404;18.836;2023-05-02T00:30:34;2.00;2.00;0.00
77692;PMS5003;66984;47.404;18.836;2023-05-02T00:31:39;2.00;2.00;0.00
77692;PMS5003;66984;47.404;18.836;2023-05-02T00:32:43;1.75;1.75;0.00
77692;PMS5003;66984;47.404;18.836;2023-05-02T00:33:46;1.00;1.00;0.00
77692;PMS5003;66984;47.404;18.836;2023-05-02T00:34:49;0.75;0.00;0.00
77692;PMS5003;66984;47.404;18.836;2023-05-02T00:35:52;1.00;0.00;0.00
77692;PMS5003;66984;47.404;18.836;2023-05-02T00:36:55;1.00;0.00;0.00
77692;PMS5003;66984;47.404;18.836;2023-05-02T00:37:59;1.75;1.00;0.00
77692;PMS5003;66984;47.404;18.836;2023-05-02T00:39:01;2.00;2.00;0.00
77692;PMS5003;66984;47.404;18.836;2023-05-02T00:40:06;1.00;1.00;0.00
77692;PMS5003;66984;47.404;18.836;2023-05-02T00:41:09;1.50;1.50;0.00
77692;PMS5003;66984;47.404;18.836;2023-05-02T00:42:12;1.25;1.25;0.00
77692;PMS5003;66984;47.404;18.836;2023-05-02T00:43:15;1.00;0.00;0.00
77692;PMS5003;66984;47.404;18.836;2023-05-02T00:44:18;0.75;0.75;0.00
77692;PMS5003;66984;47.404;18.836;2023-05-02T00:45:21;0.25;0.25;0.00
77692;PMS5003;66984;47.404;18.836;2023-05-02T00:46:24;0.00;0.00;0.00
77692;PMS5003;66984;47.404;18.836;2023-05-02T00:47:27;1.25;1.25;0.00
77692;PMS5003;66984;47.404;18.836;2023-05-02T00:48:30;2.00;2.00;0.00
77692;PMS5003;66984;47.404;18.836;2023-05-02T00:49:33;2.00;2.00;0.00
77692;PMS5003;66984;47.404;18.836;2023-05-02T00:50:37;1.00;1.00;0.00
77692;PMS5003;66984;47.404;18.836;2023-05-02T00:51:44;0.25;0.25;0.00
77692;PMS5003;66984;47.404;18.836;2023-05-02T00:52:47;1.50;1.50;0.00
77692;PMS5003;66984;47.404;18.836;2023-05-02T00:53:50;1.00;1.00;0.00
77692;PMS5003;66984;47.404;18.836;2023-05-02T00:54:54;2.00;2.00;0.00
77692;PMS5003;66984;47.404;18.836;2023-05-02T00:55:57;2.00;1.75;0.00
77692;PMS5003;66984;47.404;18.836;2023-05-02T00:57:01;1.00;1.00;0.00
77692;PMS5003;66984;47.404;18.836;2023-05-02T00:58:04;1.75;1.25;0.00
77692;PMS5003;66984;47.404;18.836;2023-05-02T00:59:12;2.00;2.00;0.00
77692;PMS5003;66984;47.404;18.836;2023-05-02T01:00:17;1.00;1.00;0.00
77692;PMS5003;66984;47.404;18.836;2023-05-02T01:03:11;3.00;3.00;0.00
77692;PMS5003;66984;47.404;18.836;2023-05-02T01:04:29;2.00;2.00;0.00
77692;PMS5003;66984;47.404;18.836;2023-05-02T01:05:48;1.75;1.75;0.00
77692;PMS5003;66984;47.404;18.836;2023-05-02T01:13:43;3.00;3.00;0.00
77692;PMS5003;66984;47.404;18.836;2023-05-02T01:14:31;3.00;3.00;0.00
77692;PMS5003;66984;47.404;18.836;2023-05-02T01:15:37;2.00;2.00;0.00
77692;PMS5003;66984;47.404;18.836;2023-05-02T01:16:41;2.50;2.50;0.00
77692;PMS5003;66984;47.404;18.836;2023-05-02T01:17:47;3.00;3.00;0.00
77692;PMS5003;66984;47.404;18.836;2023-05-02T01:18:52;3.00;2.00;0.00
77692;PMS5003;66984;47.404;18.836;2023-05-02T01:19:57;4.00;3.00;0.00
77692;PMS5003;66984;47.404;18.836;2023-05-02T01:21:03;3.00;2.75;0.00
77692;PMS5003;66984;47.404;18.836;2023-05-02T01:22:10;1.00;1.00;0.00
77692;PMS5003;66984;47.404;18.836;2023-05-02T01:23:23;3.00;1.75;0.00
77692;PMS5003;66984;47.404;18.836;2023-05-02T01:24:29;2.00;2.00;0.00
77692;PMS5003;66984;47.404;18.836;2023-05-02T01:25:51;3.75;3.00;0.00
77692;PMS5003;66984;47.404;18.836;2023-05-02T01:28:54;3.50;3.00;0.00
77692;PMS5003;66984;47.404;18.836;2023-05-02T01:30:00;3.00;3.00;0.00
77692;PMS5003;66984;47.404;18.836;2023-05-02T01:31:04;1.00;1.00;0.00
77692;PMS5003;66984;47.404;18.836;2023-05-02T01:32:08;2.00;2.00;0.00
77692;PMS5003;66984;47.404;18.836;2023-05-02T01:33:16;3.00;3.00;0.00
77692;PMS5003;66984;47.404;18.836;2023-05-02T01:34:20;2.00;2.00;0.00
77692;PMS5003;66984;47.404;18.836;2023-05-02T01:35:24;2.25;2.25;0.00
77692;PMS5003;66984;47.404;18.836;2023-05-02T01:36:29;3.50;3.50;0.00
77692;PMS5003;66984;47.404;18.836;2023-05-02T01:37:35;1.00;1.00;0.00
77692;PMS5003;66984;47.404;18.836;2023-05-02T01:38:41;3.00;3.00;0.00
77692;PMS5003;66984;47.404;18.836;2023-05-02T01:39:45;3.00;2.00;0.00
77692;PMS5003;66984;47.404;18.836;2023-05-02T01:40:49;2.75;2.00;0.00
77692;PMS5003;66984;47.404;18.836;2023-05-02T01:41:53;4.00;3.00;0.00
77692;PMS5003;66984;47.404;18.836;2023-05-02T01:42:58;3.25;2.00;0.00
77692;PMS5003;66984;47.404;18.836;2023-05-02T01:44:05;3.00;2.00;0.00
77692;PMS5003;66984;47.404;18.836;2023-05-02T01:45:10;4.00;4.00;1.00
77692;PMS5003;66984;47.404;18.836;2023-05-02T01:46:14;4.00;3.00;1.00
77692;PMS5003;66984;47.404;18.836;2023-05-02T01:47:17;3.00;2.00;1.00
77692;PMS5003;66984;47.404;18.836;2023-05-02T01:48:22;4.00;4.00;1.00
77692;PMS5003;66984;47.404;18.836;2023-05-02T01:49:30;3.00;3.00;0.00
77692;PMS5003;66984;47.404;18.836;2023-05-02T01:50:35;3.75;2.00;0.00
77692;PMS5003;66984;47.404;18.836;2023-05-02T01:51:42;2.50;1.50;0.00
77692;PMS5003;66984;47.404;18.836;2023-05-02T01:52:47;4.75;4.00;0.00
77692;PMS5003;66984;47.404;18.836;2023-05-02T01:53:54;3.75;3.00;0.00
77692;PMS5003;66984;47.404;18.836;2023-05-02T01:54:58;4.00;4.00;1.00
77692;PMS5003;66984;47.404;18.836;2023-05-02T01:56:02;3.00;3.00;0.00
77692;PMS5003;66984;47.404;18.836;2023-05-02T01:57:06;4.75;3.00;0.00
77692;PMS5003;66984;47.404;18.836;2023-05-02T01:58:11;3.00;3.00;0.00
77692;PMS5003;66984;47.404;18.836;2023-05-02T01:59:17;3.00;3.00;0.00
77692;PMS5003;66984;47.404;18.836;2023-05-02T02:00:23;4.00;4.00;0.00
77692;PMS5003;66984;47.404;18.836;2023-05-02T02:01:27;4.00;4.00;0.00
77692;PMS5003;66984;47.404;18.836;2023-05-02T02:02:33;5.75;5.75;0.00
77692;PMS5003;66984;47.404;18.836;2023-05-02T02:03:37;4.75;4.75;0.00
77692;PMS5003;66984;47.404;18.836;2023-05-02T02:04:40;4.00;4.00;0.00
77692;PMS5003;66984;47.404;18.836;2023-05-02T02:05:43;3.00;3.00;0.00
77692;PMS5003;66984;47.404;18.836;2023-05-02T02:06:51;4.00;4.00;0.00
77692;PMS5003;66984;47.404;18.836;2023-05-02T02:07:59;2.00;2.00;0.00
77692;PMS5003;66984;47.404;18.836;2023-05-02T02:09:02;3.50;3.50;0.00
77692;PMS5003;66984;47.404;18.836;2023-05-02T02:10:05;4.00;3.75;0.00
77692;PMS5003;66984;47.404;18.836;2023-05-02T02:11:10;5.25;4.75;0.00
77692;PMS5003;66984;47.404;18.836;2023-05-02T02:12:16;4.00;4.00;0.00
77692;PMS5003;66984;47.404;18.836;2023-05-02T02:13:36;4.00;4.00;1.75
77692;PMS5003;66984;47.404;18.836;2023-05-02T02:14:47;4.25;4.25;1.00
77692;PMS5003;66984;47.404;18.836;2023-05-02T02:15:58;4.00;4.00;1.00
77692;PMS5003;66984;47.404;18.836;2023-05-02T02:17:05;5.00;5.00;1.25
77692;PMS5003;66984;47.404;18.836;2023-05-02T02:18:18;4.00;4.00;1.00
77692;PMS5003;66984;47.404;18.836;2023-05-02T02:19:24;5.00;4.00;1.00
77692;PMS5003;66984;47.404;18.836;2023-05-02T02:20:28;5.00;5.00;2.00
77692;PMS5003;66984;47.404;18.836;2023-05-02T02:21:31;5.00;5.00;1.00
77692;PMS5003;66984;47.404;18.836;2023-05-02T02:22:38;4.00;3.00;1.00
77692;PMS5003;66984;47.404;18.836;2023-05-02T02:23:42;4.00;3.75;1.00
77692;PMS5003;66984;47.404;18.836;2023-05-02T02:24:49;4.00;4.00;1.00
77692;PMS5003;66984;47.404;18.836;2023-05-02T02:25:55;5.00;5.00;1.00
77692;PMS5003;66984;47.404;18.836;2023-05-02T02:26:59;4.00;4.00;1.00
77692;PMS5003;66984;47.404;18.836;2023-05-02T02:28:02;3.50;3.50;1.00
77692;PMS5003;66984;47.404;18.836;2023-05-02T02:29:05;5.50;3.00;0.00
77692;PMS5003;66984;47.404;18.836;2023-05-02T02:30:08;4.00;2.00;0.00
77692;PMS5003;66984;47.404;18.836;2023-05-02T02:31:12;4.00;4.00;0.00
77692;PMS5003;66984;47.404;18.836;2023-05-02T02:32:15;5.00;5.00;0.00
77692;PMS5003;66984;47.404;18.836;2023-05-02T02:33:18;4.00;4.00;0.00
77692;PMS5003;66984;47.404;18.836;2023-05-02T02:34:25;5.00;5.00;1.00
77692;PMS5003;66984;47.404;18.836;2023-05-02T02:35:30;4.00;4.00;1.00
77692;PMS5003;66984;47.404;18.836;2023-05-02T02:36:43;4.75;4.75;1.00
77692;PMS5003;66984;47.404;18.836;2023-05-02T02:40:46;5.00;4.00;0.00
77692;PMS5003;66984;47.404;18.836;2023-05-02T02:43:07;7.00;6.00;2.00
77692;PMS5003;66984;47.404;18.836;2023-05-02T02:45:37;6.00;5.00;3.00
77692;PMS5003;66984;47.404;18.836;2023-05-02T02:47:06;4.25;4.00;2.00
77692;PMS5003;66984;47.404;18.836;2023-05-02T02:48:30;5.00;5.00;2.00
77692;PMS5003;66984;47.404;18.836;2023-05-02T02:49:45;6.00;5.00;2.00
77692;PMS5003;66984;47.404;18.836;2023-05-02T02:53:26;6.00;4.00;1.00
77692;PMS5003;66984;47.404;18.836;2023-05-02T02:55:59;5.00;5.00;1.00
77692;PMS5003;66984;47.404;18.836;2023-05-02T02:57:11;5.00;5.00;2.00
77692;PMS5003;66984;47.404;18.836;2023-05-02T03:00:00;5.00;5.00;1.00
77692;PMS5003;66984;47.404;18.836;2023-05-02T03:01:10;5.75;5.00;2.00
77692;PMS5003;66984;47.404;18.836;2023-05-02T03:02:18;5.00;5.00;3.00
77692;PMS5003;66984;47.404;18.836;2023-05-02T03:03:28;4.50;3.25;2.00
77692;PMS5003;66984;47.404;18.836;2023-05-02T03:04:35;6.00;6.00;3.00
77692;PMS5003;66984;47.404;18.836;2023-05-02T03:05:41;5.00;4.75;3.00
77692;PMS5003;66984;47.404;18.836;2023-05-02T03:06:45;5.75;5.25;2.00
77692;PMS5003;66984;47.404;18.836;2023-05-02T03:07:49;6.25;6.25;3.00
77692;PMS5003;66984;47.404;18.836;2023-05-02T03:08:52;6.00;6.00;3.00
77692;PMS5003;66984;47.404;18.836;2023-05-02T03:09:55;5.50;5.25;2.00
77692;PMS5003;66984;47.404;18.836;2023-05-02T03:10:59;7.50;5.75;2.00
77692;PMS5003;66984;47.404;18.836;2023-05-02T03:12:01;6.00;6.00;3.00
77692;PMS5003;66984;47.404;18.836;2023-05-02T03:13:05;5.00;5.00;2.75
77692;PMS5003;66984;47.404;18.836;2023-05-02T03:14:08;6.00;6.00;2.00
77692;PMS5003;66984;47.404;18.836;2023-05-02T03:16:32;7.00;7.00;2.00
77692;PMS5003;66984;47.404;18.836;2023-05-02T03:17:39;7.00;7.00;3.00
77692;PMS5003;66984;47.404;18.836;2023-05-02T03:18:42;5.00;5.00;2.00
77692;PMS5003;66984;47.404;18.836;2023-05-02T03:19:45;5.00;4.25;2.25
77692;PMS5003;66984;47.404;18.836;2023-05-02T03:20:48;5.00;4.50;1.75
77692;PMS5003;66984;47.404;18.836;2023-05-02T03:21:51;5.00;4.00;2.00
77692;PMS5003;66984;47.404;18.836;2023-05-02T03:22:54;6.00;6.00;2.75
77692;PMS5003;66984;47.404;18.836;2023-05-02T03:23:58;6.75;6.00;3.00
77692;PMS5003;66984;47.404;18.836;2023-05-02T03:25:01;6.00;5.00;2.00
77692;PMS5003;66984;47.404;18.836;2023-05-02T03:26:05;6.00;6.00;3.00
77692;PMS5003;66984;47.404;18.836;2023-05-02T03:27:08;6.75;6.75;3.00
77692;PMS5003;66984;47.404;18.836;2023-05-02T03:28:11;5.00;5.00;3.00
77692;PMS5003;66984;47.404;18.836;2023-05-02T03:29:14;8.00;5.50;3.00
77692;PMS5003;66984;47.404;18.836;2023-05-02T03:30:17;6.00;6.00;3.00
77692;PMS5003;66984;47.404;18.836;2023-05-02T03:31:20;7.50;7.50;3.00
77692;PMS5003;66984;47.404;18.836;2023-05-02T03:32:26;6.00;6.00;3.00
77692;PMS5003;66984;47.404;18.836;2023-05-02T03:33:29;6.75;6.50;3.00
77692;PMS5003;66984;47.404;18.836;2023-05-02T03:34:33;6.00;6.00;2.00
77692;PMS5003;66984;47.404;18.836;2023-05-02T03:35:37;5.00;5.00;3.00
77692;PMS5003;66984;47.404;18.836;2023-05-02T03:36:49;6.00;5.00;2.00
77692;PMS5003;66984;47.404;18.836;2023-05-02T03:37:52;5.00;5.00;1.00
77692;PMS5003;66984;47.404;18.836;2023-05-02T03:38:55;6.75;6.75;2.00
77692;PMS5003;66984;47.404;18.836;2023-05-02T03:39:58;7.00;5.25;3.00
77692;PMS5003;66984;47.404;18.836;2023-05-02T03:41:02;7.00;7.00;2.00
77692;PMS5003;66984;47.404;18.836;2023-05-02T03:42:05;6.25;6.25;2.50
77692;PMS5003;66984;47.404;18.836;2023-05-02T03:43:08;7.00;6.00;1.00
77692;PMS5003;66984;47.404;18.836;2023-05-02T03:44:11;7.00;7.00;2.25
77692;PMS5003;66984;47.404;18.836;2023-05-02T03:45:14;7.00;7.00;2.00
77692;PMS5003;66984;47.404;18.836;2023-05-02T03:46:17;5.25;5.25;3.75
77692;PMS5003;66984;47.404;18.836;2023-05-02T03:47:20;6.00;6.00;3.00
77692;PMS5003;66984;47.404;18.836;2023-05-02T03:48:22;5.00;5.00;2.00
77692;PMS5003;66984;47.404;18.836;2023-05-02T03:49:25;5.50;5.00;2.00
77692;PMS5003;66984;47.404;18.836;2023-05-02T03:50:28;7.25;7.00;3.00
77692;PMS5003;66984;47.404;18.836;2023-05-02T03:51:31;8.00;8.00;3.00
77692;PMS5003;66984;47.404;18.836;2023-05-02T03:52:35;6.50;6.50;3.00
77692;PMS5003;66984;47.404;18.836;2023-05-02T03:53:38;6.75;6.75;3.00
77692;PMS5003;66984;47.404;18.836;2023-05-02T03:54:40;7.00;7.00;3.00
77692;PMS5003;66984;47.404;18.836;2023-05-02T03:55:47;6.75;6.25;3.00
77692;PMS5003;66984;47.404;18.836;2023-05-02T03:56:52;6.00;6.00;3.00
77692;PMS5003;66984;47.404;18.836;2023-05-02T03:57:55;6.75;6.75;3.00
77692;PMS5003;66984;47.404;18.836;2023-05-02T03:58:58;7.75;7.75;3.00
77692;PMS5003;66984;47.404;18.836;2023-05-02T04:00:01;7.00;7.00;3.00
77692;PMS5003;66984;47.404;18.836;2023-05-02T04:01:12;5.00;5.00;2.00
77692;PMS5003;66984;47.404;18.836;2023-05-02T04:02:16;7.00;6.00;3.00
77692;PMS5003;66984;47.404;18.836;2023-05-02T04:03:19;5.75;5.75;2.00
77692;PMS5003;66984;47.404;18.836;2023-05-02T04:04:23;5.00;5.00;3.00
77692;PMS5003;66984;47.404;18.836;2023-05-02T04:05:26;7.50;7.50;4.00
77692;PMS5003;66984;47.404;18.836;2023-05-02T04:06:29;7.00;7.00;3.00
77692;PMS5003;66984;47.404;18.836;2023-05-02T04:07:33;8.00;8.00;3.00
77692;PMS5003;66984;47.404;18.836;2023-05-02T04:08:37;7.75;7.75;3.00
77692;PMS5003;66984;47.404;18.836;2023-05-02T04:09:40;6.75;6.00;3.00
77692;PMS5003;66984;47.404;18.836;2023-05-02T04:10:43;6.50;6.50;2.00
77692;PMS5003;66984;47.404;18.836;2023-05-02T04:11:45;6.00;6.00;2.50
77692;PMS5003;66984;47.404;18.836;2023-05-02T04:12:49;8.25;8.25;2.00
77692;PMS5003;66984;47.404;18.836;2023-05-02T04:13:51;7.50;7.25;4.00
77692;PMS5003;66984;47.404;18.836;2023-05-02T04:14:54;7.00;5.25;3.00
77692;PMS5003;66984;47.404;18.836;2023-05-02T04:15:57;8.00;7.00;2.75
77692;PMS5003;66984;47.404;18.836;2023-05-02T04:17:00;4.25;4.25;3.00
77692;PMS5003;66984;47.404;18.836;2023-05-02T04:18:03;7.00;7.00;3.00
77692;PMS5003;66984;47.404;18.836;2023-05-02T04:19:06;7.00;7.00;3.00
77692;PMS5003;66984;47.404;18.836;2023-05-02T04:20:09;6.25;6.25;2.75
77692;PMS5003;66984;47.404;18.836;2023-05-02T04:21:13;6.25;6.25;3.00
77692;PMS5003;66984;47.404;18.836;2023-05-02T04:22:15;8.25;7.00;2.25
77692;PMS5003;66984;47.404;18.836;2023-05-02T04:23:18;6.25;6.00;1.00
77692;PMS5003;66984;47.404;18.836;2023-05-02T04:24:21;5.50;5.50;2.75
77692;PMS5003;66984;47.404;18.836;2023-05-02T04:25:24;7.75;7.75;4.00
77692;PMS5003;66984;47.404;18.836;2023-05-02T04:26:27;6.50;6.50;4.00
77692;PMS5003;66984;47.404;18.836;2023-05-02T04:27:30;6.00;6.00;4.00
77692;PMS5003;66984;47.404;18.836;2023-05-02T04:28:34;5.00;5.00;3.00
77692;PMS5003;66984;47.404;18.836;2023-05-02T04:29:37;8.00;7.25;3.00
77692;PMS5003;66984;47.404;18.836;2023-05-02T04:30:40;6.00;5.25;3.00
77692;PMS5003;66984;47.404;18.836;2023-05-02T04:31:43;7.00;7.00;3.00
77692;PMS5003;66984;47.404;18.836;2023-05-02T04:32:46;7.00;6.00;2.00
77692;PMS5003;66984;47.404;18.836;2023-05-02T04:33:49;9.00;8.00;3.00
77692;PMS5003;66984;47.404;18.836;2023-05-02T04:34:52;9.00;9.00;4.00
77692;PMS5003;66984;47.404;18.836;2023-05-02T04:35:54;10.00;9.00;5.00
77692;PMS5003;66984;47.404;18.836;2023-05-02T04:36:59;7.25;7.00;3.00
77692;PMS5003;66984;47.404;18.836;2023-05-02T04:38:03;7.25;7.00;3.00
77692;PMS5003;66984;47.404;18.836;2023-05-02T04:39:06;7.25;7.00;4.25
77692;PMS5003;66984;47.404;18.836;2023-05-02T04:40:09;9.00;8.75;4.00
77692;PMS5003;66984;47.404;18.836;2023-05-02T04:41:13;7.75;7.00;3.75
77692;PMS5003;66984;47.404;18.836;2023-05-02T04:42:16;6.00;6.00;3.75
77692;PMS5003;66984;47.404;18.836;2023-05-02T04:43:19;6.50;6.50;2.00
77692;PMS5003;66984;47.404;18.836;2023-05-02T04:44:25;7.75;7.00;3.75
77692;PMS5003;66984;47.404;18.836;2023-05-02T04:45:28;9.00;8.00;3.00
77692;PMS5003;66984;47.404;18.836;2023-05-02T04:46:31;7.50;7.00;3.50
77692;PMS5003;66984;47.404;18.836;2023-05-02T04:47:36;7.00;6.50;3.00
77692;PMS5003;66984;47.404;18.836;2023-05-02T04:48:39;4.00;4.00;3.00
77692;PMS5003;66984;47.404;18.836;2023-05-02T04:49:43;7.75;6.75;3.50
77692;PMS5003;66984;47.404;18.836;2023-05-02T04:50:46;7.75;6.25;4.00
77692;PMS5003;66984;47.404;18.836;2023-05-02T04:51:49;7.00;6.50;3.00
77692;PMS5003;66984;47.404;18.836;2023-05-02T04:52:54;9.50;8.00;3.00
77692;PMS5003;66984;47.404;18.836;2023-05-02T04:54:03;7.00;7.00;3.75
77692;PMS5003;66984;47.404;18.836;2023-05-02T04:55:06;6.00;5.00;3.00
77692;PMS5003;66984;47.404;18.836;2023-05-02T04:56:09;6.50;6.25;4.00
77692;PMS5003;66984;47.404;18.836;2023-05-02T04:57:13;7.25;7.25;3.00
77692;PMS5003;66984;47.404;18.836;2023-05-02T04:58:16;6.00;6.00;4.00
77692;PMS5003;66984;47.404;18.836;2023-05-02T04:59:19;7.50;6.50;3.00
77692;PMS5003;66984;47.404;18.836;2023-05-02T05:00:22;6.00;5.75;2.00
77692;PMS5003;66984;47.404;18.836;2023-05-02T05:01:25;9.50;9.00;3.00
77692;PMS5003;66984;47.404;18.836;2023-05-02T05:02:31;6.00;6.00;3.00
77692;PMS5003;66984;47.404;18.836;2023-05-02T05:03:34;5.75;5.75;3.25
77692;PMS5003;66984;47.404;18.836;2023-05-02T05:04:38;6.00;6.00;3.00
77692;PMS5003;66984;47.404;18.836;2023-05-02T05:05:41;8.00;8.00;4.00
77692;PMS5003;66984;47.404;18.836;2023-05-02T05:06:44;7.25;7.25;4.00
77692;PMS5003;66984;47.404;18.836;2023-05-02T05:07:49;7.00;7.00;4.00
77692;PMS5003;66984;47.404;18.836;2023-05-02T05:08:54;7.00;6.00;3.00
77692;PMS5003;66984;47.404;18.836;2023-05-02T05:09:57;8.00;7.00;4.00
77692;PMS5003;66984;47.404;18.836;2023-05-02T05:11:01;7.00;7.00;4.00
77692;PMS5003;66984;47.404;18.836;2023-05-02T05:12:03;6.00;6.00;2.50
77692;PMS5003;66984;47.404;18.836;2023-05-02T05:13:06;7.00;6.00;2.25
77692;PMS5003;66984;47.404;18.836;2023-05-02T05:14:09;7.00;7.00;4.00
77692;PMS5003;66984;47.404;18.836;2023-05-02T05:15:13;9.00;9.00;4.25
77692;PMS5003;66984;47.404;18.836;2023-05-02T05:16:16;8.00;7.00;4.00
77692;PMS5003;66984;47.404;18.836;2023-05-02T05:17:19;10.00;7.50;4.00
77692;PMS5003;66984;47.404;18.836;2023-05-02T05:18:23;8.00;8.00;4.00
77692;PMS5003;66984;47.404;18.836;2023-05-02T05:19:26;7.25;7.25;2.75
77692;PMS5003;66984;47.404;18.836;2023-05-02T05:20:29;8.00;8.00;3.00
77692;PMS5003;66984;47.404;18.836;2023-05-02T05:21:32;8.00;8.00;4.00
77692;PMS5003;66984;47.404;18.836;2023-05-02T05:22:38;9.00;9.00;4.00
77692;PMS5003;66984;47.404;18.836;2023-05-02T05:23:41;8.00;7.00;3.00
77692;PMS5003;66984;47.404;18.836;2023-05-02T05:24:52;8.50;8.00;4.25
77692;PMS5003;66984;47.404;18.836;2023-05-02T05:25:56;8.00;8.00;3.75
77692;PMS5003;66984;47.404;18.836;2023-05-02T05:26:59;8.00;7.00;5.00
77692;PMS5003;66984;47.404;18.836;2023-05-02T05:28:02;7.00;7.00;3.25
77692;PMS5003;66984;47.404;18.836;2023-05-02T05:29:05;7.00;7.00;3.00
77692;PMS5003;66984;47.404;18.836;2023-05-02T05:30:09;8.25;7.75;4.00
77692;PMS5003;66984;47.404;18.836;2023-05-02T05:31:13;7.50;7.00;4.00
77692;PMS5003;66984;47.404;18.836;2023-05-02T05:32:19;6.00;6.00;4.00
77692;PMS5003;66984;47.404;18.836;2023-05-02T05:33:23;10.00;8.00;4.00
77692;PMS5003;66984;47.404;18.836;2023-05-02T05:34:26;9.00;7.75;6.00
77692;PMS5003;66984;47.404;18.836;2023-05-02T05:35:29;8.25;7.00;4.00
77692;PMS5003;66984;47.404;18.836;2023-05-02T05:36:34;8.00;8.00;3.75
77692;PMS5003;66984;47.404;18.836;2023-05-02T05:37:37;8.00;8.00;3.00
77692;PMS5003;66984;47.404;18.836;2023-05-02T05:38:41;5.00;5.00;4.00
77692;PMS5003;66984;47.404;18.836;2023-05-02T05:39:44;7.50;6.75;3.00
77692;PMS5003;66984;47.404;18.836;2023-05-02T05:40:48;7.25;7.25;4.00
77692;PMS5003;66984;47.404;18.836;2023-05-02T05:41:52;7.75;7.75;5.00
77692;PMS5003;66984;47.404;18.836;2023-05-02T05:42:56;8.00;8.00;3.50
77692;PMS5003;66984;47.404;18.836;2023-05-02T05:43:58;7.00;7.00;5.00
77692;PMS5003;66984;47.404;18.836;2023-05-02T05:45:01;9.00;9.00;4.00
77692;PMS5003;66984;47.404;18.836;2023-05-02T05:46:04;7.00;7.00;4.00
77692;PMS5003;66984;47.404;18.836;2023-05-02T05:47:07;9.00;8.00;4.75
77692;PMS5003;66984;47.404;18.836;2023-05-02T05:48:10;8.00;7.00;4.00
77692;PMS5003;66984;47.404;18.836;2023-05-02T05:49:16;7.75;7.00;4.00
77692;PMS5003;66984;47.404;18.836;2023-05-02T05:50:19;7.50;7.50;3.75
77692;PMS5003;66984;47.404;18.836;2023-05-02T05:51:22;7.00;7.00;5.00
77692;PMS5003;66984;47.404;18.836;2023-05-02T05:52:25;8.00;8.00;4.75
77692;PMS5003;66984;47.404;18.836;2023-05-02T05:53:29;8.00;8.00;5.00
77692;PMS5003;66984;47.404;18.836;2023-05-02T05:54:32;9.00;8.50;4.00
77692;PMS5003;66984;47.404;18.836;2023-05-02T05:55:35;7.75;7.75;4.00
77692;PMS5003;66984;47.404;18.836;2023-05-02T05:56:42;6.75;6.00;3.00
77692;PMS5003;66984;47.404;18.836;2023-05-02T05:57:45;10.00;9.00;4.25
77692;PMS5003;66984;47.404;18.836;2023-05-02T05:58:48;8.00;7.75;4.00
77692;PMS5003;66984;47.404;18.836;2023-05-02T05:59:51;8.00;6.75;3.00
77692;PMS5003;66984;47.404;18.836;2023-05-02T06:00:54;7.00;7.00;3.00
77692;PMS5003;66984;47.404;18.836;2023-05-02T06:01:57;11.00;11.00;4.00
77692;PMS5003;66984;47.404;18.836;2023-05-02T06:03:01;9.00;9.00;5.00
77692;PMS5003;66984;47.404;18.836;2023-05-02T06:04:08;9.00;9.00;5.00
77692;PMS5003;66984;47.404;18.836;2023-05-02T06:05:11;9.00;9.00;5.00
77692;PMS5003;66984;47.404;18.836;2023-05-02T06:06:14;9.00;8.00;3.25
77692;PMS5003;66984;47.404;18.836;2023-05-02T06:07:17;7.00;7.00;3.00
77692;PMS5003;66984;47.404;18.836;2023-05-02T06:08:20;7.00;7.00;4.00
77692;PMS5003;66984;47.404;18.836;2023-05-02T06:09:23;8.00;8.00;3.00
77692;PMS5003;66984;47.404;18.836;2023-05-02T06:10:26;7.00;7.00;4.00
77692;PMS5003;66984;47.404;18.836;2023-05-02T06:11:29;9.50;9.50;4.00
77692;PMS5003;66984;47.404;18.836;2023-05-02T06:12:32;8.00;8.00;4.25
77692;PMS5003;66984;47.404;18.836;2023-05-02T06:13:34;7.00;7.00;4.00
77692;PMS5003;66984;47.404;18.836;2023-05-02T06:14:37;10.00;9.00;4.00
77692;PMS5003;66984;47.404;18.836;2023-05-02T06:15:40;8.00;7.75;3.00
77692;PMS5003;66984;47.404;18.836;2023-05-02T06:16:43;8.00;8.00;4.00
77692;PMS5003;66984;47.404;18.836;2023-05-02T06:17:46;10.25;10.25;5.00
77692;PMS5003;66984;47.404;18.836;2023-05-02T06:18:49;10.25;10.25;5.00
77692;PMS5003;66984;47.404;18.836;2023-05-02T06:19:54;9.00;8.00;4.25
77692;PMS5003;66984;47.404;18.836;2023-05-02T06:20:57;8.00;7.00;3.00
77692;PMS5003;66984;47.404;18.836;2023-05-02T06:22:04;8.00;8.00;3.75
77692;PMS5003;66984;47.404;18.836;2023-05-02T06:23:07;8.50;8.00;4.00
77692;PMS5003;66984;47.404;18.836;2023-05-02T06:24:10;9.00;9.00;4.00
77692;PMS5003;66984;47.404;18.836;2023-05-02T06:25:13;7.50;6.75;4.00
77692;PMS5003;66984;47.404;18.836;2023-05-02T06:26:16;10.00;10.00;5.00
77692;PMS5003;66984;47.404;18.836;2023-05-02T06:27:19;9.00;9.00;5.00
77692;PMS5003;66984;47.404;18.836;2023-05-02T06:28:21;10.00;9.00;4.00
77692;PMS5003;66984;47.404;18.836;2023-05-02T06:29:24;10.75;10.00;6.00
77692;PMS5003;66984;47.404;18.836;2023-05-02T06:30:27;10.00;9.00;6.00
77692;PMS5003;66984;47.404;18.836;2023-05-02T06:31:30;12.00;11.00;5.00
77692;PMS5003;66984;47.404;18.836;2023-05-02T06:32:33;8.00;8.00;4.00
77692;PMS5003;66984;47.404;18.836;2023-05-02T06:33:36;8.00;8.00;5.00